sensor_id;sensor_type;location;lat;lon;timestamp;temperature;humidity
29363;DHT22;16349;53.672;10.014;2023-09-19T00:00:56;16.90;99.90
29363;DHT22;16349;53.672;10.014;2023-09-19T00:03:23;16.90;99.90
29363;DHT22;16349;53.672;10.014;2023-09-19T00:05:52;16.90;99.90
29363;DHT22;16349;53.672;10.014;2023-09-19T00:08:21;16.90;99.90
29363;DHT22;16349;53.672;10.014;2023-09-19T00:10:50;16.80;99.90
29363;DHT22;16349;53.672;10.014;2023-09-19T00:13:19;16.80;99.90
29363;DHT22;16349;53.672;10.014;2023-09-19T00:15:47;16.80;99.90
29363;DHT22;16349;53.672;10.014;2023-09-19T00:18:15;16.80;99.90
29363;DHT22;16349;53.672;10.014;2023-09-19T00:20:42;16.70;99.90
29363;DHT22;16349;53.672;10.014;2023-09-19T00:23:14;16.70;99.90
29363;DHT22;16349;53.672;10.014;2023-09-19T00:25:41;16.70;99.90
29363;DHT22;16349;53.672;10.014;2023-09-19T00:28:08;16.70;99.90
29363;DHT22;16349;53.672;10.014;2023-09-19T00:30:35;16.70;99.90
29363;DHT22;16349;53.672;10.014;2023-09-19T00:33:04;16.60;99.90
29363;DHT22;16349;53.672;10.014;2023-09-19T00:35:33;16.60;99.90
29363;DHT22;16349;53.672;10.014;2023-09-19T00:38:00;16.60;99.90
29363;DHT22;16349;53.672;10.014;2023-09-19T00:40:29;16.60;99.90
29363;DHT22;16349;53.672;10.014;2023-09-19T00:42:57;16.60;99.90
29363;DHT22;16349;53.672;10.014;2023-09-19T00:45:25;16.60;99.90
29363;DHT22;16349;53.672;10.014;2023-09-19T00:47:54;16.70;99.90
29363;DHT22;16349;53.672;10.014;2023-09-19T00:50:24;16.60;99.90
29363;DHT22;16349;53.672;10.014;2023-09-19T00:52:54;16.60;99.90
29363;DHT22;16349;53.672;10.014;2023-09-19T00:55:24;16.60;99.90
29363;DHT22;16349;53.672;10.014;2023-09-19T00:57:52;16.60;99.90
29363;DHT22;16349;53.672;10.014;2023-09-19T01:00:20;16.60;99.90
29363;DHT22;16349;53.672;10.014;2023-09-19T01:02:47;16.60;99.90
29363;DHT22;16349;53.672;10.014;2023-09-19T01:05:14;16.60;99.90
29363;DHT22;16349;53.672;10.014;2023-09-19T01:07:43;16.70;99.90
29363;DHT22;16349;53.672;10.014;2023-09-19T01:10:12;16.60;99.90
29363;DHT22;16349;53.672;10.014;2023-09-19T01:12:48;16.70;99.90
29363;DHT22;16349;53.672;10.014;2023-09-19T01:15:26;16.70;99.90
29363;DHT22;16349;53.672;10.014;2023-09-19T01:18:02;16.70;99.90
29363;DHT22;16349;53.672;10.014;2023-09-19T01:20:37;16.60;99.90
29363;DHT22;16349;53.672;10.014;2023-09-19T01:23:13;16.60;99.90
29363;DHT22;16349;53.672;10.014;2023-09-19T01:26:05;16.60;99.90
29363;DHT22;16349;53.672;10.014;2023-09-19T01:28:43;16.60;99.90
29363;DHT22;16349;53.672;10.014;2023-09-19T01:31:15;16.60;99.90
29363;DHT22;16349;53.672;10.014;2023-09-19T01:33:55;16.50;99.90
29363;DHT22;16349;53.672;10.014;2023-09-19T01:36:31;16.50;99.90
29363;DHT22;16349;53.672;10.014;2023-09-19T01:39:00;16.50;99.90
29363;DHT22;16349;53.672;10.014;2023-09-19T01:41:45;16.50;99.90
29363;DHT22;16349;53.672;10.014;2023-09-19T01:44:19;16.50;99.90
29363;DHT22;16349;53.672;10.014;2023-09-19T01:46:49;16.50;99.90
29363;DHT22;16349;53.672;10.014;2023-09-19T01:49:25;16.50;99.90
29363;DHT22;16349;53.672;10.014;2023-09-19T01:52:02;16.50;99.90
29363;DHT22;16349;53.672;10.014;2023-09-19T01:54:36;16.40;99.90
29363;DHT22;16349;53.672;10.014;2023-09-19T01:57:09;16.40;99.90
29363;DHT22;16349;53.672;10.014;2023-09-19T01:59:45;16.40;99.90
29363;DHT22;16349;53.672;10.014;2023-09-19T02:02:17;16.40;99.90
29363;DHT22;16349;53.672;10.014;2023-09-19T02:04:44;16.40;99.90
29363;DHT22;16349;53.672;10.014;2023-09-19T02:07:11;16.40;99.90
29363;DHT22;16349;53.672;10.014;2023-09-19T02:09:39;16.40;99.90
29363;DHT22;16349;53.672;10.014;2023-09-19T02:12:08;16.30;99.90
29363;DHT22;16349;53.672;10.014;2023-09-19T02:14:36;16.30;99.90
29363;DHT22;16349;53.672;10.014;2023-09-19T02:17:03;16.30;99.90
29363;DHT22;16349;53.672;10.014;2023-09-19T02:19:38;16.30;99.90
29363;DHT22;16349;53.672;10.014;2023-09-19T02:22:07;16.30;99.90
29363;DHT22;16349;53.672;10.014;2023-09-19T02:24:36;16.20;99.90
29363;DHT22;16349;53.672;10.014;2023-09-19T02:27:04;16.20;99.90
29363;DHT22;16349;53.672;10.014;2023-09-19T02:29:31;16.20;99.90
29363;DHT22;16349;53.672;10.014;2023-09-19T02:32:00;16.20;99.90
29363;DHT22;16349;53.672;10.014;2023-09-19T02:34:28;16.20;99.90
29363;DHT22;16349;53.672;10.014;2023-09-19T02:36:57;16.20;99.90
29363;DHT22;16349;53.672;10.014;2023-09-19T02:39:24;16.10;99.90
29363;DHT22;16349;53.672;10.014;2023-09-19T02:41:52;16.10;99.90
29363;DHT22;16349;53.672;10.014;2023-09-19T02:44:19;16.00;99.90
29363;DHT22;16349;53.672;10.014;2023-09-19T02:46:46;16.00;99.90
29363;DHT22;16349;53.672;10.014;2023-09-19T02:49:14;16.00;99.90
29363;DHT22;16349;53.672;10.014;2023-09-19T02:51:42;16.00;99.90
29363;DHT22;16349;53.672;10.014;2023-09-19T02:54:11;16.00;99.90
29363;DHT22;16349;53.672;10.014;2023-09-19T02:56:38;16.00;99.90
29363;DHT22;16349;53.672;10.014;2023-09-19T02:59:06;16.00;99.90
29363;DHT22;16349;53.672;10.014;2023-09-19T03:01:35;16.00;99.90
29363;DHT22;16349;53.672;10.014;2023-09-19T03:04:04;16.00;99.90
29363;DHT22;16349;53.672;10.014;2023-09-19T03:06:32;16.00;99.90
29363;DHT22;16349;53.672;10.014;2023-09-19T03:08:58;16.00;99.90
29363;DHT22;16349;53.672;10.014;2023-09-19T03:11:40;16.00;99.90
29363;DHT22;16349;53.672;10.014;2023-09-19T03:14:08;16.00;99.90
29363;DHT22;16349;53.672;10.014;2023-09-19T03:16:37;16.00;99.90
29363;DHT22;16349;53.672;10.014;2023-09-19T03:19:04;16.00;99.90
29363;DHT22;16349;53.672;10.014;2023-09-19T03:21:32;16.10;99.90
29363;DHT22;16349;53.672;10.014;2023-09-19T03:23:58;16.00;99.90
29363;DHT22;16349;53.672;10.014;2023-09-19T03:26:26;16.10;99.90
29363;DHT22;16349;53.672;10.014;2023-09-19T03:28:54;16.00;99.90
29363;DHT22;16349;53.672;10.014;2023-09-19T03:31:21;16.00;99.90
29363;DHT22;16349;53.672;10.014;2023-09-19T03:33:48;16.00;99.90
29363;DHT22;16349;53.672;10.014;2023-09-19T03:36:15;16.10;99.90
29363;DHT22;16349;53.672;10.014;2023-09-19T03:38:42;16.00;99.90
29363;DHT22;16349;53.672;10.014;2023-09-19T03:41:09;16.00;99.90
29363;DHT22;16349;53.672;10.014;2023-09-19T03:43:39;16.00;99.90
29363;DHT22;16349;53.672;10.014;2023-09-19T03:46:08;16.00;99.90
29363;DHT22;16349;53.672;10.014;2023-09-19T03:48:37;16.00;99.90
29363;DHT22;16349;53.672;10.014;2023-09-19T03:51:04;16.00;99.90
29363;DHT22;16349;53.672;10.014;2023-09-19T03:53:32;15.90;99.90
29363;DHT22;16349;53.672;10.014;2023-09-19T03:55:58;15.90;99.90
29363;DHT22;16349;53.672;10.014;2023-09-19T03:58:28;15.90;99.90
29363;DHT22;16349;53.672;10.014;2023-09-19T04:00:55;15.90;99.90
29363;DHT22;16349;53.672;10.014;2023-09-19T04:03:24;15.90;99.90
29363;DHT22;16349;53.672;10.014;2023-09-19T04:06:00;15.90;99.90
29363;DHT22;16349;53.672;10.014;2023-09-19T04:08:27;15.90;99.90
29363;DHT22;16349;53.672;10.014;2023-09-19T04:10:54;15.90;99.90
29363;DHT22;16349;53.672;10.014;2023-09-19T04:13:22;15.90;99.90
29363;DHT22;16349;53.672;10.014;2023-09-19T04:15:49;15.80;99.90
29363;DHT22;16349;53.672;10.014;2023-09-19T04:18:16;15.80;99.90
29363;DHT22;16349;53.672;10.014;2023-09-19T04:20:49;15.70;99.90
29363;DHT22;16349;53.672;10.014;2023-09-19T04:23:16;15.60;99.90
29363;DHT22;16349;53.672;10.014;2023-09-19T04:25:44;15.60;99.90
29363;DHT22;16349;53.672;10.014;2023-09-19T04:28:10;15.60;99.90
29363;DHT22;16349;53.672;10.014;2023-09-19T04:30:37;15.50;99.90
29363;DHT22;16349;53.672;10.014;2023-09-19T04:33:06;15.50;99.90
29363;DHT22;16349;53.672;10.014;2023-09-19T04:35:33;15.40;99.90
29363;DHT22;16349;53.672;10.014;2023-09-19T04:38:02;15.40;99.90
29363;DHT22;16349;53.672;10.014;2023-09-19T04:40:31;15.30;99.90
29363;DHT22;16349;53.672;10.014;2023-09-19T04:42:59;15.30;99.90
29363;DHT22;16349;53.672;10.014;2023-09-19T04:45:27;15.30;99.90
29363;DHT22;16349;53.672;10.014;2023-09-19T04:47:54;15.20;99.90
29363;DHT22;16349;53.672;10.014;2023-09-19T04:50:21;15.20;99.90
29363;DHT22;16349;53.672;10.014;2023-09-19T04:52:49;15.20;99.90
29363;DHT22;16349;53.672;10.014;2023-09-19T04:55:18;15.10;99.90
29363;DHT22;16349;53.672;10.014;2023-09-19T04:57:46;15.00;99.90
29363;DHT22;16349;53.672;10.014;2023-09-19T05:00:14;15.00;99.90
29363;DHT22;16349;53.672;10.014;2023-09-19T05:02:42;15.00;99.90
29363;DHT22;16349;53.672;10.014;2023-09-19T05:05:10;15.00;99.90
29363;DHT22;16349;53.672;10.014;2023-09-19T05:07:38;14.90;99.90
29363;DHT22;16349;53.672;10.014;2023-09-19T05:10:06;14.90;99.90
29363;DHT22;16349;53.672;10.014;2023-09-19T05:12:35;14.90;99.90
29363;DHT22;16349;53.672;10.014;2023-09-19T05:15:02;14.80;99.90
29363;DHT22;16349;53.672;10.014;2023-09-19T05:17:29;14.80;99.90
29363;DHT22;16349;53.672;10.014;2023-09-19T05:19:56;14.80;99.90
29363;DHT22;16349;53.672;10.014;2023-09-19T05:22:23;14.80;99.90
29363;DHT22;16349;53.672;10.014;2023-09-19T05:24:51;14.80;99.90
29363;DHT22;16349;53.672;10.014;2023-09-19T05:27:18;14.70;99.90
29363;DHT22;16349;53.672;10.014;2023-09-19T05:29:47;14.70;99.90
29363;DHT22;16349;53.672;10.014;2023-09-19T05:32:16;14.70;99.90
29363;DHT22;16349;53.672;10.014;2023-09-19T05:34:43;14.70;99.90
29363;DHT22;16349;53.672;10.014;2023-09-19T05:37:10;14.70;99.90
29363;DHT22;16349;53.672;10.014;2023-09-19T05:39:37;14.60;99.90
29363;DHT22;16349;53.672;10.014;2023-09-19T05:42:04;14.60;99.90
29363;DHT22;16349;53.672;10.014;2023-09-19T05:44:31;14.60;99.90
29363;DHT22;16349;53.672;10.014;2023-09-19T05:47:00;14.60;99.90
29363;DHT22;16349;53.672;10.014;2023-09-19T05:49:26;14.60;99.90
29363;DHT22;16349;53.672;10.014;2023-09-19T05:51:54;14.60;99.90
29363;DHT22;16349;53.672;10.014;2023-09-19T05:54:22;14.60;99.90
29363;DHT22;16349;53.672;10.014;2023-09-19T05:56:49;14.60;99.90
29363;DHT22;16349;53.672;10.014;2023-09-19T05:59:18;14.60;99.90
29363;DHT22;16349;53.672;10.014;2023-09-19T06:01:45;14.60;99.90
29363;DHT22;16349;53.672;10.014;2023-09-19T06:04:14;14.70;99.90
29363;DHT22;16349;53.672;10.014;2023-09-19T06:06:41;14.70;99.90
29363;DHT22;16349;53.672;10.014;2023-09-19T06:09:08;14.80;99.90
29363;DHT22;16349;53.672;10.014;2023-09-19T06:11:35;14.90;99.90
29363;DHT22;16349;53.672;10.014;2023-09-19T06:14:02;14.90;99.90
29363;DHT22;16349;53.672;10.014;2023-09-19T06:16:29;15.00;99.90
29363;DHT22;16349;53.672;10.014;2023-09-19T06:18:58;15.10;99.90
29363;DHT22;16349;53.672;10.014;2023-09-19T06:21:27;15.10;99.90
29363;DHT22;16349;53.672;10.014;2023-09-19T06:23:54;15.20;99.90
29363;DHT22;16349;53.672;10.014;2023-09-19T06:26:21;15.20;99.90
29363;DHT22;16349;53.672;10.014;2023-09-19T06:28:48;15.20;99.90
29363;DHT22;16349;53.672;10.014;2023-09-19T06:31:15;15.20;99.90
29363;DHT22;16349;53.672;10.014;2023-09-19T06:33:43;15.20;99.90
29363;DHT22;16349;53.672;10.014;2023-09-19T06:36:10;15.20;99.90
29363;DHT22;16349;53.672;10.014;2023-09-19T06:38:38;15.20;99.90
29363;DHT22;16349;53.672;10.014;2023-09-19T06:41:05;15.30;99.90
29363;DHT22;16349;53.672;10.014;2023-09-19T06:43:32;15.20;99.90
29363;DHT22;16349;53.672;10.014;2023-09-19T06:46:00;15.30;99.90
29363;DHT22;16349;53.672;10.014;2023-09-19T06:48:27;15.30;99.90
29363;DHT22;16349;53.672;10.014;2023-09-19T06:50:55;15.30;99.90
29363;DHT22;16349;53.672;10.014;2023-09-19T06:53:24;15.40;99.90
29363;DHT22;16349;53.672;10.014;2023-09-19T06:55:52;15.40;99.90
29363;DHT22;16349;53.672;10.014;2023-09-19T06:58:19;15.40;99.90
29363;DHT22;16349;53.672;10.014;2023-09-19T07:00:46;15.40;99.90
29363;DHT22;16349;53.672;10.014;2023-09-19T07:03:15;15.40;99.90
29363;DHT22;16349;53.672;10.014;2023-09-19T07:05:44;15.50;99.90
29363;DHT22;16349;53.672;10.014;2023-09-19T07:08:11;15.40;99.90
29363;DHT22;16349;53.672;10.014;2023-09-19T07:10:38;15.50;99.90
29363;DHT22;16349;53.672;10.014;2023-09-19T07:13:08;15.50;99.90
29363;DHT22;16349;53.672;10.014;2023-09-19T07:15:37;15.50;99.90
29363;DHT22;16349;53.672;10.014;2023-09-19T07:18:07;15.60;99.90
29363;DHT22;16349;53.672;10.014;2023-09-19T07:20:36;15.60;99.90
29363;DHT22;16349;53.672;10.014;2023-09-19T07:23:03;15.60;99.90
29363;DHT22;16349;53.672;10.014;2023-09-19T07:25:31;15.70;99.90
29363;DHT22;16349;53.672;10.014;2023-09-19T07:27:58;15.70;99.90
29363;DHT22;16349;53.672;10.014;2023-09-19T07:30:27;15.70;99.90
29363;DHT22;16349;53.672;10.014;2023-09-19T07:32:54;15.70;99.90
29363;DHT22;16349;53.672;10.014;2023-09-19T07:35:21;15.70;99.90
29363;DHT22;16349;53.672;10.014;2023-09-19T07:37:48;15.70;99.90
29363;DHT22;16349;53.672;10.014;2023-09-19T07:40:17;15.70;99.90
29363;DHT22;16349;53.672;10.014;2023-09-19T07:42:44;15.70;99.90
29363;DHT22;16349;53.672;10.014;2023-09-19T07:45:12;15.80;99.90
29363;DHT22;16349;53.672;10.014;2023-09-19T07:47:44;15.70;99.90
29363;DHT22;16349;53.672;10.014;2023-09-19T07:50:10;15.80;99.90
29363;DHT22;16349;53.672;10.014;2023-09-19T07:52:37;15.70;99.90
29363;DHT22;16349;53.672;10.014;2023-09-19T07:55:05;15.70;99.90
29363;DHT22;16349;53.672;10.014;2023-09-19T07:57:34;15.70;99.90
29363;DHT22;16349;53.672;10.014;2023-09-19T08:00:03;15.70;99.90
29363;DHT22;16349;53.672;10.014;2023-09-19T08:02:37;15.70;99.90
29363;DHT22;16349;53.672;10.014;2023-09-19T08:05:06;15.70;99.90
29363;DHT22;16349;53.672;10.014;2023-09-19T08:07:35;15.70;99.90
29363;DHT22;16349;53.672;10.014;2023-09-19T08:10:04;15.70;99.90
29363;DHT22;16349;53.672;10.014;2023-09-19T08:12:33;15.70;99.90
29363;DHT22;16349;53.672;10.014;2023-09-19T08:15:01;15.70;99.90
29363;DHT22;16349;53.672;10.014;2023-09-19T08:17:28;15.70;99.90
29363;DHT22;16349;53.672;10.014;2023-09-19T08:19:55;15.70;99.90
29363;DHT22;16349;53.672;10.014;2023-09-19T08:22:24;15.70;99.90
29363;DHT22;16349;53.672;10.014;2023-09-19T08:24:50;15.80;99.90
29363;DHT22;16349;53.672;10.014;2023-09-19T08:27:17;15.80;99.90
29363;DHT22;16349;53.672;10.014;2023-09-19T08:29:45;15.90;99.90
29363;DHT22;16349;53.672;10.014;2023-09-19T08:32:12;15.90;99.90
29363;DHT22;16349;53.672;10.014;2023-09-19T08:34:40;15.90;99.90
29363;DHT22;16349;53.672;10.014;2023-09-19T08:37:07;15.90;99.90
29363;DHT22;16349;53.672;10.014;2023-09-19T08:39:35;16.00;99.90
29363;DHT22;16349;53.672;10.014;2023-09-19T08:42:03;16.00;99.90
29363;DHT22;16349;53.672;10.014;2023-09-19T08:44:36;15.90;99.90
29363;DHT22;16349;53.672;10.014;2023-09-19T08:47:09;15.90;99.90
29363;DHT22;16349;53.672;10.014;2023-09-19T08:49:44;15.90;99.90
29363;DHT22;16349;53.672;10.014;2023-09-19T08:52:23;15.90;99.90
29363;DHT22;16349;53.672;10.014;2023-09-19T08:54:56;15.90;99.90
29363;DHT22;16349;53.672;10.014;2023-09-19T08:57:25;15.90;99.90
29363;DHT22;16349;53.672;10.014;2023-09-19T08:59:55;15.90;99.90
29363;DHT22;16349;53.672;10.014;2023-09-19T09:02:24;15.90;99.90
29363;DHT22;16349;53.672;10.014;2023-09-19T09:04:53;15.90;99.90
29363;DHT22;16349;53.672;10.014;2023-09-19T09:07:21;16.00;99.90
29363;DHT22;16349;53.672;10.014;2023-09-19T09:09:48;16.00;99.90
29363;DHT22;16349;53.672;10.014;2023-09-19T09:12:17;16.10;99.90
29363;DHT22;16349;53.672;10.014;2023-09-19T09:14:45;16.10;99.90
29363;DHT22;16349;53.672;10.014;2023-09-19T09:17:15;16.10;99.90
29363;DHT22;16349;53.672;10.014;2023-09-19T09:19:45;16.10;99.90
29363;DHT22;16349;53.672;10.014;2023-09-19T09:22:13;16.20;99.90
29363;DHT22;16349;53.672;10.014;2023-09-19T09:24:51;16.20;99.90
29363;DHT22;16349;53.672;10.014;2023-09-19T09:27:20;16.30;99.90
29363;DHT22;16349;53.672;10.014;2023-09-19T09:29:50;16.30;99.90
29363;DHT22;16349;53.672;10.014;2023-09-19T09:32:19;16.40;99.90
29363;DHT22;16349;53.672;10.014;2023-09-19T09:34:47;16.50;99.90
29363;DHT22;16349;53.672;10.014;2023-09-19T09:37:15;16.50;99.90
29363;DHT22;16349;53.672;10.014;2023-09-19T09:39:49;16.60;99.90
29363;DHT22;16349;53.672;10.014;2023-09-19T09:42:29;16.70;99.90
29363;DHT22;16349;53.672;10.014;2023-09-19T09:45:16;16.80;99.90
29363;DHT22;16349;53.672;10.014;2023-09-19T09:47:44;16.80;99.90
29363;DHT22;16349;53.672;10.014;2023-09-19T09:50:27;16.80;99.90
29363;DHT22;16349;53.672;10.014;2023-09-19T09:53:20;16.90;99.90
29363;DHT22;16349;53.672;10.014;2023-09-19T09:56:03;16.90;99.90
29363;DHT22;16349;53.672;10.014;2023-09-19T09:58:34;17.00;99.90
29363;DHT22;16349;53.672;10.014;2023-09-19T10:01:01;17.00;99.90
29363;DHT22;16349;53.672;10.014;2023-09-19T10:03:35;17.10;99.90
29363;DHT22;16349;53.672;10.014;2023-09-19T10:06:07;17.20;99.90
29363;DHT22;16349;53.672;10.014;2023-09-19T10:09:03;17.20;99.90
29363;DHT22;16349;53.672;10.014;2023-09-19T10:11:42;17.30;99.90
29363;DHT22;16349;53.672;10.014;2023-09-19T10:14:12;17.40;99.90
29363;DHT22;16349;53.672;10.014;2023-09-19T10:16:46;17.40;99.90
29363;DHT22;16349;53.672;10.014;2023-09-19T10:19:16;17.50;99.90
29363;DHT22;16349;53.672;10.014;2023-09-19T10:21:48;17.50;99.90
29363;DHT22;16349;53.672;10.014;2023-09-19T10:24:17;17.50;99.90
29363;DHT22;16349;53.672;10.014;2023-09-19T10:26:45;17.50;99.90
29363;DHT22;16349;53.672;10.014;2023-09-19T10:29:18;17.60;99.90
29363;DHT22;16349;53.672;10.014;2023-09-19T10:31:47;17.70;99.90
29363;DHT22;16349;53.672;10.014;2023-09-19T10:34:17;17.70;99.90
29363;DHT22;16349;53.672;10.014;2023-09-19T10:36:45;17.70;99.90
29363;DHT22;16349;53.672;10.014;2023-09-19T10:39:15;17.90;99.90
29363;DHT22;16349;53.672;10.014;2023-09-19T10:41:49;17.90;99.90
29363;DHT22;16349;53.672;10.014;2023-09-19T10:44:23;17.90;99.90
29363;DHT22;16349;53.672;10.014;2023-09-19T10:46:51;17.90;99.90
29363;DHT22;16349;53.672;10.014;2023-09-19T10:49:19;17.90;99.90
29363;DHT22;16349;53.672;10.014;2023-09-19T10:51:47;17.90;99.90
29363;DHT22;16349;53.672;10.014;2023-09-19T10:54:17;18.10;99.90
29363;DHT22;16349;53.672;10.014;2023-09-19T10:56:47;18.20;99.90
29363;DHT22;16349;53.672;10.014;2023-09-19T10:59:17;18.10;99.90
29363;DHT22;16349;53.672;10.014;2023-09-19T11:01:47;18.10;99.90
29363;DHT22;16349;53.672;10.014;2023-09-19T11:04:30;18.00;99.90
29363;DHT22;16349;53.672;10.014;2023-09-19T11:07:02;18.10;99.90
29363;DHT22;16349;53.672;10.014;2023-09-19T11:09:47;18.10;99.90
29363;DHT22;16349;53.672;10.014;2023-09-19T11:18:57;18.00;99.90
29363;DHT22;16349;53.672;10.014;2023-09-19T11:21:52;17.90;99.90
29363;DHT22;16349;53.672;10.014;2023-09-19T11:24:32;17.90;99.90
29363;DHT22;16349;53.672;10.014;2023-09-19T11:27:12;17.90;99.90
29363;DHT22;16349;53.672;10.014;2023-09-19T11:29:40;17.90;99.90
29363;DHT22;16349;53.672;10.014;2023-09-19T11:32:07;18.00;99.90
29363;DHT22;16349;53.672;10.014;2023-09-19T11:34:44;18.00;99.90
29363;DHT22;16349;53.672;10.014;2023-09-19T11:40:36;18.30;99.90
29363;DHT22;16349;53.672;10.014;2023-09-19T11:43:30;18.30;99.90
29363;DHT22;16349;53.672;10.014;2023-09-19T11:46:05;18.40;99.90
29363;DHT22;16349;53.672;10.014;2023-09-19T11:48:32;18.40;99.90
29363;DHT22;16349;53.672;10.014;2023-09-19T11:51:11;18.40;99.90
29363;DHT22;16349;53.672;10.014;2023-09-19T11:53:45;18.40;99.90
29363;DHT22;16349;53.672;10.014;2023-09-19T11:56:14;18.40;99.90
29363;DHT22;16349;53.672;10.014;2023-09-19T11:58:44;18.50;99.90
29363;DHT22;16349;53.672;10.014;2023-09-19T12:01:13;18.60;99.90
29363;DHT22;16349;53.672;10.014;2023-09-19T12:03:46;18.80;99.90
29363;DHT22;16349;53.672;10.014;2023-09-19T12:06:16;18.90;99.90
29363;DHT22;16349;53.672;10.014;2023-09-19T12:08:44;18.80;99.90
29363;DHT22;16349;53.672;10.014;2023-09-19T12:11:13;18.90;99.90
29363;DHT22;16349;53.672;10.014;2023-09-19T12:13:42;18.70;99.90
29363;DHT22;16349;53.672;10.014;2023-09-19T12:16:14;18.70;99.90
29363;DHT22;16349;53.672;10.014;2023-09-19T12:18:42;18.80;99.90
29363;DHT22;16349;53.672;10.014;2023-09-19T12:21:23;18.80;99.90
29363;DHT22;16349;53.672;10.014;2023-09-19T12:23:58;18.80;99.90
29363;DHT22;16349;53.672;10.014;2023-09-19T12:26:26;18.70;99.90
29363;DHT22;16349;53.672;10.014;2023-09-19T12:28:54;18.70;99.90
29363;DHT22;16349;53.672;10.014;2023-09-19T12:31:21;18.70;99.90
29363;DHT22;16349;53.672;10.014;2023-09-19T12:33:53;18.80;99.90
29363;DHT22;16349;53.672;10.014;2023-09-19T12:36:22;19.00;99.90
29363;DHT22;16349;53.672;10.014;2023-09-19T12:38:55;19.00;99.90
29363;DHT22;16349;53.672;10.014;2023-09-19T12:41:24;19.10;99.90
29363;DHT22;16349;53.672;10.014;2023-09-19T12:43:52;19.00;99.90
29363;DHT22;16349;53.672;10.014;2023-09-19T12:46:21;19.10;99.90
29363;DHT22;16349;53.672;10.014;2023-09-19T12:49:14;19.10;99.90
29363;DHT22;16349;53.672;10.014;2023-09-19T12:51:44;19.10;99.90
29363;DHT22;16349;53.672;10.014;2023-09-19T12:54:12;19.10;99.90
29363;DHT22;16349;53.672;10.014;2023-09-19T12:56:41;19.20;99.90
29363;DHT22;16349;53.672;10.014;2023-09-19T12:59:11;19.40;99.90
29363;DHT22;16349;53.672;10.014;2023-09-19T13:01:39;19.40;99.90
29363;DHT22;16349;53.672;10.014;2023-09-19T13:04:13;19.40;99.90
29363;DHT22;16349;53.672;10.014;2023-09-19T13:06:45;19.20;99.90
29363;DHT22;16349;53.672;10.014;2023-09-19T13:09:14;19.20;99.90
29363;DHT22;16349;53.672;10.014;2023-09-19T13:11:42;19.10;99.90
29363;DHT22;16349;53.672;10.014;2023-09-19T13:14:16;19.20;99.90
29363;DHT22;16349;53.672;10.014;2023-09-19T13:16:57;19.30;99.90
29363;DHT22;16349;53.672;10.014;2023-09-19T13:19:39;19.50;99.90
29363;DHT22;16349;53.672;10.014;2023-09-19T13:22:38;19.60;99.90
29363;DHT22;16349;53.672;10.014;2023-09-19T13:25:07;19.70;99.90
29363;DHT22;16349;53.672;10.014;2023-09-19T13:27:40;19.60;99.90
29363;DHT22;16349;53.672;10.014;2023-09-19T13:30:08;19.70;99.90
29363;DHT22;16349;53.672;10.014;2023-09-19T13:32:35;19.70;99.90
29363;DHT22;16349;53.672;10.014;2023-09-19T13:35:02;19.60;99.90
29363;DHT22;16349;53.672;10.014;2023-09-19T13:37:30;19.60;99.90
29363;DHT22;16349;53.672;10.014;2023-09-19T13:39:59;19.50;99.90
29363;DHT22;16349;53.672;10.014;2023-09-19T13:42:26;19.40;99.90
29363;DHT22;16349;53.672;10.014;2023-09-19T13:44:55;19.40;99.90
29363;DHT22;16349;53.672;10.014;2023-09-19T13:47:22;19.40;99.90
29363;DHT22;16349;53.672;10.014;2023-09-19T13:49:52;19.30;99.90
29363;DHT22;16349;53.672;10.014;2023-09-19T13:52:19;19.40;99.90
29363;DHT22;16349;53.672;10.014;2023-09-19T13:54:47;19.50;99.90
29363;DHT22;16349;53.672;10.014;2023-09-19T13:57:15;19.60;99.90
29363;DHT22;16349;53.672;10.014;2023-09-19T13:59:43;19.70;99.90
29363;DHT22;16349;53.672;10.014;2023-09-19T14:02:09;19.90;99.90
29363;DHT22;16349;53.672;10.014;2023-09-19T14:04:37;20.10;99.90
29363;DHT22;16349;53.672;10.014;2023-09-19T14:07:04;20.00;99.90
29363;DHT22;16349;53.672;10.014;2023-09-19T14:09:32;19.80;99.90
29363;DHT22;16349;53.672;10.014;2023-09-19T14:12:00;19.90;99.90
29363;DHT22;16349;53.672;10.014;2023-09-19T14:14:28;20.20;99.90
29363;DHT22;16349;53.672;10.014;2023-09-19T14:16:55;20.30;99.90
29363;DHT22;16349;53.672;10.014;2023-09-19T14:19:22;20.50;99.90
29363;DHT22;16349;53.672;10.014;2023-09-19T14:21:51;20.70;99.90
29363;DHT22;16349;53.672;10.014;2023-09-19T14:24:21;21.10;99.70
29363;DHT22;16349;53.672;10.014;2023-09-19T14:26:48;21.20;99.40
29363;DHT22;16349;53.672;10.014;2023-09-19T14:29:16;21.00;99.50
29363;DHT22;16349;53.672;10.014;2023-09-19T14:31:45;20.60;99.80
29363;DHT22;16349;53.672;10.014;2023-09-19T14:34:12;20.30;99.90
29363;DHT22;16349;53.672;10.014;2023-09-19T14:36:40;20.20;99.90
29363;DHT22;16349;53.672;10.014;2023-09-19T14:39:07;20.20;99.90
29363;DHT22;16349;53.672;10.014;2023-09-19T14:41:34;20.30;99.90
29363;DHT22;16349;53.672;10.014;2023-09-19T14:44:03;20.20;99.90
29363;DHT22;16349;53.672;10.014;2023-09-19T14:46:30;20.00;99.90
29363;DHT22;16349;53.672;10.014;2023-09-19T14:48:59;19.80;99.90
29363;DHT22;16349;53.672;10.014;2023-09-19T14:51:29;19.70;99.90
29363;DHT22;16349;53.672;10.014;2023-09-19T14:53:57;19.60;99.90
29363;DHT22;16349;53.672;10.014;2023-09-19T14:56:23;19.50;99.90
29363;DHT22;16349;53.672;10.014;2023-09-19T14:58:51;19.40;99.90
29363;DHT22;16349;53.672;10.014;2023-09-19T15:01:17;19.40;99.90
29363;DHT22;16349;53.672;10.014;2023-09-19T15:03:45;19.30;99.90
29363;DHT22;16349;53.672;10.014;2023-09-19T15:06:13;19.30;99.90
29363;DHT22;16349;53.672;10.014;2023-09-19T15:08:46;19.30;99.90
29363;DHT22;16349;53.672;10.014;2023-09-19T15:11:14;19.30;99.90
29363;DHT22;16349;53.672;10.014;2023-09-19T15:13:43;19.30;99.90
29363;DHT22;16349;53.672;10.014;2023-09-19T15:16:10;19.20;99.90
29363;DHT22;16349;53.672;10.014;2023-09-19T15:18:39;19.20;99.90
29363;DHT22;16349;53.672;10.014;2023-09-19T15:21:08;19.10;99.90
29363;DHT22;16349;53.672;10.014;2023-09-19T15:23:39;19.10;99.90
29363;DHT22;16349;53.672;10.014;2023-09-19T15:26:07;19.00;99.90
29363;DHT22;16349;53.672;10.014;2023-09-19T15:28:34;19.00;99.90
29363;DHT22;16349;53.672;10.014;2023-09-19T15:31:03;19.00;99.90
29363;DHT22;16349;53.672;10.014;2023-09-19T15:33:30;19.00;99.90
29363;DHT22;16349;53.672;10.014;2023-09-19T15:36:01;19.00;99.90
29363;DHT22;16349;53.672;10.014;2023-09-19T15:38:29;19.00;99.90
29363;DHT22;16349;53.672;10.014;2023-09-19T15:40:58;19.00;99.90